createdAt,value
2023-05-22T00:00:31.875Z,20.40
2023-05-22T00:02:59.090Z,20.40
2023-05-22T00:05:28.437Z,20.40
2023-05-22T00:07:57.467Z,20.30
2023-05-22T00:10:26.908Z,20.30
2023-05-22T00:12:56.226Z,20.20
2023-05-22T00:15:23.166Z,20.20
2023-05-22T00:17:50.052Z,20.20
2023-05-22T00:20:17.272Z,20.20
2023-05-22T00:22:45.012Z,20.20
2023-05-22T00:25:15.259Z,20.20
2023-05-22T00:27:47.310Z,20.10
2023-05-22T00:30:16.734Z,20.10
2023-05-22T00:32:43.897Z,20.10
2023-05-22T00:35:13.093Z,20.10
2023-05-22T00:37:44.973Z,20.00
2023-05-22T00:40:16.378Z,20.00
2023-05-22T00:42:46.961Z,20.00
2023-05-22T00:45:15.257Z,20.00
2023-05-22T00:47:44.555Z,19.90
2023-05-22T00:50:16.365Z,19.90
2023-05-22T00:52:46.083Z,19.90
2023-05-22T00:55:16.886Z,19.90
2023-05-22T00:57:43.830Z,19.90
2023-05-22T01:00:14.710Z,19.90
2023-05-22T01:02:44.253Z,19.90
2023-05-22T01:05:18.228Z,19.80
2023-05-22T01:07:46.377Z,19.90
2023-05-22T01:10:13.360Z,19.90
2023-05-22T01:12:54.066Z,19.90
2023-05-22T01:15:41.198Z,19.80
2023-05-22T01:22:32.946Z,19.70
2023-05-22T01:25:26.518Z,19.60
2023-05-22T01:28:07.581Z,19.60
2023-05-22T01:30:59.041Z,19.60
2023-05-22T01:33:33.490Z,19.50
2023-05-22T01:36:06.952Z,19.50
2023-05-22T01:38:35.205Z,19.50
2023-05-22T01:41:02.462Z,19.50
2023-05-22T01:43:29.692Z,19.50
2023-05-22T01:45:56.581Z,19.50
2023-05-22T01:48:25.885Z,19.50
2023-05-22T01:50:54.759Z,19.50
2023-05-22T01:53:32.917Z,19.50
2023-05-22T01:56:22.451Z,19.50
2023-05-22T01:59:01.431Z,19.40
2023-05-22T02:01:31.199Z,19.30
2023-05-22T02:03:58.822Z,19.30
2023-05-22T02:06:32.183Z,19.30
2023-05-22T02:09:01.271Z,19.30
2023-05-22T02:11:34.854Z,19.30
2023-05-22T02:14:03.997Z,19.30
2023-05-22T02:16:33.379Z,19.30
2023-05-22T02:19:06.509Z,19.30
2023-05-22T02:21:37.309Z,19.30
2023-05-22T02:24:06.850Z,19.20
2023-05-22T02:26:37.206Z,19.20
2023-05-22T02:29:04.178Z,19.20
2023-05-22T02:31:31.162Z,19.10
2023-05-22T02:33:58.111Z,19.10
2023-05-22T02:36:26.196Z,19.10
2023-05-22T02:38:58.307Z,19.10
2023-05-22T02:41:27.910Z,19.00
2023-05-22T02:43:57.794Z,19.00
2023-05-22T02:46:24.946Z,19.00
2023-05-22T02:48:53.979Z,18.90
2023-05-22T02:51:23.453Z,19.00
2023-05-22T02:53:50.477Z,18.90
2023-05-22T02:56:18.883Z,18.90
2023-05-22T02:58:45.842Z,18.90
2023-05-22T03:01:16.200Z,18.90
2023-05-22T03:03:43.719Z,18.90
2023-05-22T03:06:13.278Z,18.80
2023-05-22T03:08:43.432Z,18.80
2023-05-22T03:11:10.565Z,18.80
2023-05-22T03:13:39.923Z,18.70
2023-05-22T03:16:07.410Z,18.70
2023-05-22T03:18:36.468Z,18.60
2023-05-22T03:21:03.508Z,18.60
2023-05-22T03:23:31.356Z,18.60
2023-05-22T03:26:01.531Z,18.50
2023-05-22T03:28:32.452Z,18.50
2023-05-22T03:30:59.392Z,18.40
2023-05-22T03:33:31.865Z,18.30
2023-05-22T03:35:59.227Z,18.40
2023-05-22T03:38:27.094Z,18.30
2023-05-22T03:40:54.895Z,18.30
2023-05-22T03:43:24.485Z,18.30
2023-05-22T03:45:51.513Z,18.30
2023-05-22T03:48:20.824Z,18.20
2023-05-22T03:50:53.890Z,18.30
2023-05-22T03:53:21.181Z,18.30
2023-05-22T03:55:48.061Z,18.30
2023-05-22T03:58:19.689Z,18.30
2023-05-22T04:00:46.630Z,18.30
2023-05-22T04:03:13.566Z,18.30
2023-05-22T04:05:43.930Z,18.30
2023-05-22T04:08:12.947Z,18.20
2023-05-22T04:10:40.266Z,18.30
2023-05-22T04:13:09.524Z,18.30
2023-05-22T04:15:36.530Z,18.30
2023-05-22T04:18:06.035Z,18.20
2023-05-22T04:20:33.369Z,18.20
2023-05-22T04:23:01.027Z,18.20
2023-05-22T04:25:32.367Z,18.20
2023-05-22T04:28:04.570Z,18.20
2023-05-22T04:30:34.572Z,18.20
2023-05-22T04:33:02.041Z,18.30
2023-05-22T04:35:30.556Z,18.20
2023-05-22T04:38:02.013Z,18.30
2023-05-22T04:40:33.405Z,18.30
2023-05-22T04:43:01.531Z,18.40
2023-05-22T04:45:30.486Z,18.40
2023-05-22T04:48:02.609Z,18.40
2023-05-22T04:50:33.151Z,18.40
2023-05-22T04:53:00.325Z,18.40
2023-05-22T04:55:29.614Z,18.30
2023-05-22T04:57:56.866Z,18.30
2023-05-22T05:00:28.632Z,18.30
2023-05-22T05:02:57.971Z,18.30
2023-05-22T05:05:25.288Z,18.30
2023-05-22T05:07:53.594Z,18.30
2023-05-22T05:10:23.042Z,18.40
2023-05-22T05:12:52.886Z,18.40
2023-05-22T05:15:23.805Z,18.50
2023-05-22T05:17:51.056Z,18.50
2023-05-22T05:20:18.042Z,18.50
2023-05-22T05:22:46.306Z,18.40
2023-05-22T05:25:15.877Z,18.50
2023-05-22T05:27:47.999Z,18.50
2023-05-22T05:30:20.375Z,18.50
2023-05-22T05:33:11.886Z,18.50
2023-05-22T05:36:05.715Z,18.60
2023-05-22T05:38:33.092Z,18.60
2023-05-22T05:41:07.530Z,18.60
2023-05-22T05:43:35.749Z,18.60
2023-05-22T05:46:07.128Z,18.50
2023-05-22T05:48:35.731Z,18.50
2023-05-22T05:51:03.109Z,18.50
2023-05-22T05:53:37.598Z,18.50
2023-05-22T05:56:09.294Z,18.50
2023-05-22T05:58:37.573Z,18.60
2023-05-22T06:01:25.262Z,18.70
2023-05-22T06:03:53.710Z,18.80
2023-05-22T06:06:26.201Z,18.80
2023-05-22T06:09:19.161Z,18.90
2023-05-22T06:12:13.599Z,18.90
2023-05-22T06:19:09.221Z,19.00
2023-05-22T06:21:36.661Z,19.00
2023-05-22T06:24:11.363Z,19.00
2023-05-22T06:26:39.575Z,19.10
2023-05-22T06:29:06.550Z,19.20
2023-05-22T06:31:38.008Z,19.30
2023-05-22T06:34:06.213Z,19.40
2023-05-22T06:36:34.702Z,19.40
2023-05-22T06:39:02.774Z,19.40
2023-05-22T06:42:05.274Z,19.50
2023-05-22T06:44:52.709Z,19.50
2023-05-22T06:47:21.048Z,19.50
2023-05-22T06:49:47.917Z,19.60
2023-05-22T06:52:15.581Z,19.60
2023-05-22T06:54:45.212Z,19.70
2023-05-22T06:57:15.933Z,19.70
2023-05-22T06:59:43.034Z,19.70
2023-05-22T07:02:39.674Z,19.70
2023-05-22T07:05:15.056Z,19.80
2023-05-22T07:07:57.273Z,19.80
2023-05-22T07:10:27.734Z,19.80
2023-05-22T07:12:56.379Z,19.80
2023-05-22T07:15:25.875Z,19.90
2023-05-22T07:17:56.257Z,20.00
2023-05-22T07:20:25.520Z,20.00
2023-05-22T07:23:10.615Z,20.00
2023-05-22T07:25:38.484Z,20.10
2023-05-22T07:28:08.825Z,20.30
2023-05-22T07:30:41.327Z,20.40
2023-05-22T07:33:08.587Z,20.50
2023-05-22T07:35:35.930Z,20.50
2023-05-22T07:38:04.010Z,20.60
2023-05-22T07:40:33.324Z,20.60
2023-05-22T07:43:03.337Z,20.70
2023-05-22T07:45:32.850Z,20.70
2023-05-22T07:48:04.528Z,20.90
2023-05-22T07:50:35.241Z,20.90
2023-05-22T07:53:07.049Z,21.00
2023-05-22T07:55:39.467Z,21.10
2023-05-22T07:58:08.375Z,21.20
2023-05-22T08:00:37.802Z,21.30
2023-05-22T08:03:07.062Z,21.50
2023-05-22T08:05:34.010Z,21.60
2023-05-22T08:08:02.920Z,21.70
2023-05-22T08:10:46.388Z,21.80
2023-05-22T08:13:19.702Z,21.90
2023-05-22T08:15:46.666Z,22.10
2023-05-22T08:18:13.805Z,22.20
2023-05-22T08:20:41.059Z,22.30
2023-05-22T08:23:08.204Z,22.40
2023-05-22T08:25:37.213Z,22.60
2023-05-22T08:28:04.524Z,22.70
2023-05-22T08:30:31.418Z,22.90
2023-05-22T08:32:58.369Z,23.00
2023-05-22T08:35:25.404Z,23.30
2023-05-22T08:37:54.538Z,23.60
2023-05-22T08:40:32.358Z,23.70
2023-05-22T08:43:00.161Z,23.70
2023-05-22T08:45:29.964Z,24.00
2023-05-22T08:47:58.675Z,24.40
2023-05-22T08:50:28.576Z,24.70
2023-05-22T08:52:59.280Z,24.90
2023-05-22T08:55:29.489Z,25.70
2023-05-22T08:57:57.489Z,26.50
2023-05-22T09:00:24.503Z,26.80
2023-05-22T09:02:55.879Z,27.10
2023-05-22T09:05:28.032Z,27.10
2023-05-22T09:08:02.646Z,27.00
2023-05-22T09:10:36.176Z,27.30
2023-05-22T09:13:09.396Z,27.00
2023-05-22T09:15:38.945Z,26.70
2023-05-22T09:18:06.633Z,26.40
2023-05-22T09:20:38.998Z,26.40
2023-05-22T09:23:14.536Z,27.00
2023-05-22T09:25:42.986Z,27.00
2023-05-22T09:28:11.919Z,27.00
2023-05-22T09:30:39.367Z,27.00
2023-05-22T09:33:12.613Z,27.00
2023-05-22T09:35:39.765Z,26.70
2023-05-22T09:38:06.781Z,26.30
2023-05-22T09:40:38.779Z,25.90
2023-05-22T09:43:12.792Z,25.60
2023-05-22T09:45:40.411Z,25.90
2023-05-22T09:48:09.295Z,26.20
2023-05-22T09:50:40.244Z,26.40
2023-05-22T09:53:10.228Z,26.60
2023-05-22T09:55:38.258Z,26.60
2023-05-22T09:58:09.219Z,26.50
2023-05-22T10:00:37.838Z,26.20
2023-05-22T10:03:18.693Z,26.10
2023-05-22T10:05:50.279Z,25.90
2023-05-22T10:08:34.534Z,25.70
2023-05-22T10:11:01.712Z,25.40
2023-05-22T10:13:29.753Z,25.40
2023-05-22T10:15:57.519Z,25.30
2023-05-22T10:18:25.088Z,25.20
2023-05-22T10:20:52.577Z,25.30
2023-05-22T10:23:19.802Z,25.20
2023-05-22T10:25:53.052Z,25.20
2023-05-22T10:28:30.008Z,25.20
2023-05-22T10:31:06.252Z,25.20
2023-05-22T10:33:57.292Z,25.30
2023-05-22T10:36:52.362Z,25.30
2023-05-22T10:39:20.147Z,25.30
2023-05-22T10:41:51.485Z,25.30
2023-05-22T10:44:18.768Z,25.20
2023-05-22T10:46:50.355Z,25.20
2023-05-22T10:49:22.904Z,25.20
2023-05-22T10:52:05.478Z,25.20
2023-05-22T10:54:45.326Z,25.30
2023-05-22T10:57:18.814Z,25.20
2023-05-22T10:59:48.746Z,25.30
2023-05-22T11:02:29.350Z,25.20
2023-05-22T11:05:25.678Z,25.20
2023-05-22T11:07:52.736Z,25.20
2023-05-22T11:10:54.904Z,25.10
2023-05-22T11:13:27.432Z,25.00
2023-05-22T11:15:56.606Z,25.00
2023-05-22T11:18:24.493Z,25.10
2023-05-22T11:20:54.468Z,25.10
2023-05-22T11:23:23.252Z,25.20
2023-05-22T11:25:52.698Z,25.10
2023-05-22T11:28:19.619Z,25.10
2023-05-22T11:30:52.296Z,25.10
2023-05-22T11:33:19.315Z,25.10
2023-05-22T11:35:53.054Z,25.10
2023-05-22T11:38:21.357Z,25.10
2023-05-22T11:40:54.333Z,25.10
2023-05-22T11:43:34.731Z,25.10
2023-05-22T11:46:07.276Z,25.10
2023-05-22T11:48:40.468Z,25.10
2023-05-22T11:51:07.823Z,25.20
2023-05-22T11:53:35.775Z,25.30
2023-05-22T11:56:08.237Z,25.40
2023-05-22T11:58:35.133Z,25.30
2023-05-22T12:01:08.803Z,25.30
2023-05-22T12:03:36.225Z,25.40
2023-05-22T12:06:04.910Z,25.40
2023-05-22T12:08:34.604Z,25.40
2023-05-22T12:11:04.974Z,25.40
2023-05-22T12:13:32.286Z,25.40
2023-05-22T12:16:00.541Z,25.50
2023-05-22T12:18:35.168Z,25.40
2023-05-22T12:21:06.620Z,25.30
2023-05-22T12:23:33.527Z,25.20
2023-05-22T12:26:09.401Z,25.20
2023-05-22T12:28:38.902Z,25.10
2023-05-22T12:31:06.059Z,25.10
2023-05-22T12:33:33.096Z,25.00
2023-05-22T12:36:00.051Z,25.00
2023-05-22T12:38:27.814Z,25.00
2023-05-22T12:40:58.425Z,25.10
2023-05-22T12:43:26.338Z,25.20
2023-05-22T12:45:53.666Z,25.20
2023-05-22T12:48:22.946Z,25.30
2023-05-22T12:50:52.679Z,25.40
2023-05-22T12:53:22.075Z,25.40
2023-05-22T12:55:48.961Z,25.30
2023-05-22T12:58:17.945Z,25.20
2023-05-22T13:00:47.399Z,25.20
2023-05-22T13:03:17.061Z,25.20
2023-05-22T13:05:44.212Z,25.20
2023-05-22T13:08:13.450Z,25.30
2023-05-22T13:10:42.835Z,25.30
2023-05-22T13:17:25.538Z,25.40
2023-05-22T13:19:54.494Z,25.40
2023-05-22T13:22:21.824Z,25.40
2023-05-22T13:24:51.674Z,25.40
2023-05-22T13:27:19.311Z,25.40
2023-05-22T13:29:46.302Z,25.50
2023-05-22T13:32:15.656Z,25.60
2023-05-22T13:34:43.114Z,25.60
2023-05-22T13:37:13.391Z,25.60
2023-05-22T13:39:42.785Z,25.50
2023-05-22T13:42:14.309Z,25.60
2023-05-22T13:44:43.842Z,25.60
2023-05-22T13:47:11.175Z,25.60
2023-05-22T13:49:38.141Z,25.70
2023-05-22T13:52:05.601Z,25.80
2023-05-22T13:54:32.577Z,25.90
2023-05-22T13:57:02.582Z,26.00
2023-05-22T13:59:29.814Z,27.20
2023-05-22T14:01:56.857Z,28.60
2023-05-22T14:04:26.509Z,30.10
2023-05-22T14:06:55.555Z,31.10
2023-05-22T14:09:25.158Z,31.80
2023-05-22T14:11:52.120Z,31.50
2023-05-22T14:14:23.943Z,31.60
2023-05-22T14:16:54.465Z,31.90
2023-05-22T14:19:21.561Z,32.80
2023-05-22T14:21:49.887Z,34.10
2023-05-22T14:24:16.914Z,35.30
2023-05-22T14:26:44.542Z,34.50
2023-05-22T14:29:11.908Z,33.40
2023-05-22T14:31:51.439Z,32.90
2023-05-22T14:34:21.393Z,31.70
2023-05-22T14:36:48.613Z,31.10
2023-05-22T14:39:17.713Z,31.40
2023-05-22T14:41:44.694Z,32.10
2023-05-22T14:44:11.847Z,31.40
2023-05-22T14:46:44.353Z,32.10
2023-05-22T14:49:14.272Z,32.00
2023-05-22T14:51:41.765Z,32.50
2023-05-22T14:54:09.163Z,31.70
2023-05-22T14:56:36.702Z,31.30
2023-05-22T14:59:03.951Z,30.90
2023-05-22T15:01:31.029Z,30.10
2023-05-22T15:03:57.925Z,29.50
2023-05-22T15:06:24.869Z,29.10
2023-05-22T15:08:51.777Z,28.40
2023-05-22T15:11:18.679Z,27.90
2023-05-22T15:13:47.668Z,27.60
2023-05-22T15:16:14.648Z,27.30
2023-05-22T15:18:41.667Z,27.10
2023-05-22T15:21:11.309Z,26.90
2023-05-22T15:28:02.398Z,26.70
2023-05-22T15:30:30.855Z,26.50
2023-05-22T15:32:57.816Z,26.40
2023-05-22T15:35:24.756Z,26.40
2023-05-22T15:37:56.475Z,26.30
2023-05-22T15:40:25.649Z,26.20
2023-05-22T15:42:57.552Z,26.10
2023-05-22T15:45:24.415Z,26.10
2023-05-22T15:47:53.554Z,26.00
2023-05-22T15:50:22.761Z,25.90
2023-05-22T15:52:54.751Z,25.80
2023-05-22T15:55:23.961Z,25.70
2023-05-22T15:57:51.105Z,25.60
2023-05-22T16:01:30.003Z,25.60
2023-05-22T16:03:59.925Z,25.50
2023-05-22T16:06:28.511Z,25.40
2023-05-22T16:08:55.406Z,25.40
2023-05-22T16:11:30.174Z,25.50
2023-05-22T16:13:57.279Z,25.50
2023-05-22T16:16:24.245Z,25.60
2023-05-22T16:18:51.193Z,25.60
2023-05-22T16:21:18.323Z,25.50
2023-05-22T16:23:45.424Z,25.40
2023-05-22T16:26:14.947Z,25.40
2023-05-22T16:28:42.109Z,25.40
2023-05-22T16:31:09.130Z,25.40
2023-05-22T16:33:37.481Z,25.20
2023-05-22T16:36:04.996Z,25.20
2023-05-22T16:38:32.031Z,25.20
2023-05-22T16:41:01.597Z,25.20
2023-05-22T16:43:28.580Z,25.10
2023-05-22T16:45:57.606Z,25.10
2023-05-22T16:48:24.767Z,25.10
2023-05-22T16:50:51.832Z,25.00
2023-05-22T16:53:18.783Z,25.00
2023-05-22T16:55:45.735Z,24.90
2023-05-22T16:58:13.459Z,24.90
2023-05-22T17:00:43.102Z,24.90
2023-05-22T17:03:11.947Z,24.90
2023-05-22T17:05:42.081Z,24.80
2023-05-22T17:08:11.422Z,24.80
2023-05-22T17:10:41.688Z,24.80
2023-05-22T17:13:08.860Z,24.80
2023-05-22T17:15:35.804Z,24.80
2023-05-22T17:18:03.096Z,24.80
2023-05-22T17:20:30.069Z,24.80
2023-05-22T17:22:56.995Z,24.70
2023-05-22T17:25:26.357Z,24.60
2023-05-22T17:27:53.235Z,24.60
2023-05-22T17:30:20.398Z,24.60
2023-05-22T17:32:53.352Z,24.50
2023-05-22T17:35:20.588Z,24.50
2023-05-22T17:37:47.724Z,24.40
2023-05-22T17:40:19.742Z,24.30
2023-05-22T17:42:47.626Z,24.30
2023-05-22T17:45:17.016Z,24.30
2023-05-22T17:47:46.944Z,24.20
2023-05-22T17:50:14.086Z,24.10
2023-05-22T17:52:41.232Z,24.10
2023-05-22T17:55:09.347Z,24.10
2023-05-22T17:57:36.524Z,24.00
2023-05-22T18:00:05.879Z,24.00
2023-05-22T18:02:38.747Z,24.00
2023-05-22T18:05:06.350Z,23.90
2023-05-22T18:07:33.344Z,23.90
2023-05-22T18:10:07.555Z,23.80
2023-05-22T18:12:36.631Z,23.80
2023-05-22T18:15:09.893Z,23.80
2023-05-22T18:17:36.946Z,23.70
2023-05-22T18:20:07.396Z,23.70
2023-05-22T18:22:38.343Z,23.70
2023-05-22T18:25:06.780Z,23.60
2023-05-22T18:27:34.388Z,23.60
2023-05-22T18:30:02.069Z,23.60
2023-05-22T18:32:31.505Z,23.60
2023-05-22T18:35:04.635Z,23.60
2023-05-22T18:37:32.119Z,23.50
2023-05-22T18:39:59.091Z,23.50
2023-05-22T18:42:26.172Z,23.50
2023-05-22T18:44:53.424Z,23.40
2023-05-22T18:47:22.832Z,23.40
2023-05-22T18:49:49.828Z,23.30
2023-05-22T18:52:16.805Z,23.30
2023-05-22T18:54:44.390Z,23.30
2023-05-22T18:57:11.981Z,23.30
2023-05-22T18:59:42.341Z,23.20
2023-05-22T19:02:11.607Z,23.20
2023-05-22T19:04:38.549Z,23.20
2023-05-22T19:07:05.971Z,23.20
2023-05-22T19:09:33.058Z,23.10
2023-05-22T19:12:05.043Z,23.10
2023-05-22T19:14:31.981Z,23.10
2023-05-22T19:17:01.941Z,23.00
2023-05-22T19:19:29.301Z,22.90
2023-05-22T19:21:56.325Z,22.90
2023-05-22T19:24:23.404Z,22.90
2023-05-22T19:26:54.989Z,22.90
2023-05-22T19:29:21.989Z,22.80
2023-05-22T19:31:50.798Z,22.80
2023-05-22T19:34:19.997Z,22.80
2023-05-22T19:36:47.144Z,22.80
2023-05-22T19:39:17.008Z,22.70
2023-05-22T19:41:47.627Z,22.70
2023-05-22T19:44:14.614Z,22.70
2023-05-22T19:46:43.662Z,22.60
2023-05-22T19:49:10.979Z,22.60
2023-05-22T19:51:38.339Z,22.50
2023-05-22T19:54:05.456Z,22.50
2023-05-22T19:56:35.078Z,22.50
2023-05-22T19:59:02.289Z,22.50
2023-05-22T20:01:29.381Z,22.50
2023-05-22T20:03:56.646Z,22.40
2023-05-22T20:06:23.961Z,22.40
2023-05-22T20:08:53.440Z,22.40
2023-05-22T20:11:20.400Z,22.40
2023-05-22T20:13:54.403Z,22.30
2023-05-22T20:16:21.514Z,22.30
2023-05-22T20:18:52.281Z,22.20
2023-05-22T20:21:21.449Z,22.20
2023-05-22T20:23:48.300Z,22.20
2023-05-22T20:26:22.858Z,22.10
2023-05-22T20:28:49.977Z,22.10
2023-05-22T20:31:19.338Z,22.00
2023-05-22T20:33:46.230Z,22.00
2023-05-22T20:36:16.471Z,22.00
2023-05-22T20:38:43.847Z,22.00
2023-05-22T20:41:12.920Z,22.00
2023-05-22T20:43:43.166Z,21.90
2023-05-22T20:46:12.896Z,21.90
2023-05-22T20:48:46.902Z,21.90
2023-05-22T20:51:15.809Z,21.80
2023-05-22T20:53:42.716Z,21.80
2023-05-22T20:56:09.747Z,21.80
2023-05-22T20:58:39.037Z,21.80
2023-05-22T21:01:06.359Z,21.70
2023-05-22T21:03:35.957Z,21.70
2023-05-22T21:06:03.009Z,21.70
2023-05-22T21:08:29.860Z,21.60
2023-05-22T21:11:00.342Z,21.60
2023-05-22T21:13:27.307Z,21.60
2023-05-22T21:15:54.242Z,21.50
2023-05-22T21:18:22.006Z,21.50
2023-05-22T21:20:49.047Z,21.50
2023-05-22T21:23:16.017Z,21.50
2023-05-22T21:25:43.073Z,21.40
2023-05-22T21:28:09.994Z,21.40
2023-05-22T21:30:37.295Z,21.40
2023-05-22T21:33:04.468Z,21.40
2023-05-22T21:35:31.431Z,21.40
2023-05-22T21:37:58.412Z,21.40
2023-05-22T21:40:26.737Z,21.40
2023-05-22T21:42:53.579Z,21.30
2023-05-22T21:45:22.818Z,21.30
2023-05-22T21:47:52.287Z,21.30
2023-05-22T21:50:19.258Z,21.30
2023-05-22T21:52:48.656Z,21.20
2023-05-22T21:55:15.651Z,21.20
2023-05-22T21:57:45.487Z,21.20
2023-05-22T22:00:13.481Z,21.20
2023-05-22T22:02:41.129Z,21.20
2023-05-22T22:05:08.358Z,21.10
2023-05-22T22:07:35.502Z,21.10
2023-05-22T22:10:05.320Z,21.00
2023-05-22T22:12:32.351Z,21.00
2023-05-22T22:14:59.411Z,21.10
2023-05-22T22:17:26.393Z,21.00
2023-05-22T22:19:56.798Z,21.10
2023-05-22T22:22:24.653Z,21.00
2023-05-22T22:24:51.661Z,21.00
2023-05-22T22:27:19.684Z,21.00
2023-05-22T22:29:47.038Z,21.00
2023-05-22T22:32:16.574Z,20.90
2023-05-22T22:34:45.229Z,20.90
2023-05-22T22:37:13.920Z,20.90
2023-05-22T22:39:43.054Z,20.90
2023-05-22T22:42:10.020Z,20.90
2023-05-22T22:44:37.058Z,20.80
2023-05-22T22:47:04.679Z,20.90
2023-05-22T22:49:34.280Z,20.90
2023-05-22T22:52:01.692Z,20.90
2023-05-22T22:54:28.564Z,20.90
2023-05-22T22:57:00.106Z,20.80
2023-05-22T22:59:27.093Z,20.80
2023-05-22T23:01:54.085Z,20.80
2023-05-22T23:04:21.227Z,20.80
2023-05-22T23:06:48.343Z,20.80
2023-05-22T23:09:15.648Z,20.80
2023-05-22T23:11:42.644Z,20.80
2023-05-22T23:14:14.282Z,20.80
2023-05-22T23:16:43.949Z,20.70
2023-05-22T23:19:12.011Z,20.70
2023-05-22T23:21:39.009Z,20.70
2023-05-22T23:24:06.586Z,20.70
2023-05-22T23:26:34.386Z,20.60
2023-05-22T23:29:04.001Z,20.60
2023-05-22T23:31:31.300Z,20.60
2023-05-22T23:33:58.961Z,20.50
2023-05-22T23:36:26.279Z,20.50
2023-05-22T23:38:53.267Z,20.50
2023-05-22T23:41:22.322Z,20.50
2023-05-22T23:43:49.214Z,20.50
2023-05-22T23:46:21.203Z,20.50
2023-05-22T23:48:48.376Z,20.40
2023-05-22T23:51:15.335Z,20.40
2023-05-22T23:53:42.387Z,20.40
2023-05-22T23:56:09.928Z,20.40
2023-05-22T23:58:40.162Z,20.30
